Nagaleader — VRDD5 — position and weather

sailwx.info

Track history (hours):
 
Tides and Currents Weather Stations Pressure Air Temp Water Temp Dewpoint Dewpoint Depression Visibility Wind Speed Wind Dir Waves Ship Positions

Nagaleader

Last reported at 2014-Oct-24 11:33 UTC. Time now 2014-Oct-24 13:42 UTC.
Position N 22°33' E 120°19'.

Length 113 m; draft 5.8 m.

Type: Cargo ship. MMSI: 477926700.

Date/timePositionNaut miles runAvg speedWind from/ knotsBaromVisibWave heightAir tempDewpointWater temp
2014-Oct-24 11:33N 22°33' E 120°19'1 0.1
2014-Oct-24 03:12N 22°33' E 120°20'0 0.0
2014-Oct-24 02:12N 22°33' E 120°20'2 3.8
2014-Oct-24 01:33N 22°33' E 120°17'2 1.6
2014-Oct-24 00:33N 22°31' E 120°17'5 2.1
2014-Oct-23 22:27N 22°28' E 120°13'2 1.2
2014-Oct-23 21:06N 22°30' E 120°12'2 3.1
2014-Oct-23 20:33N 22°32' E 120°12'1313.3
2014-Oct-23 19:33N 22°44' E 120°07'16912.8
2014-Oct-23 06:22N 25°33' E 119°57'3512.3
2014-Oct-23 03:31N 26°05' E 119°43'1010.1
2014-Oct-23 02:33N 26°06' E 119°32'7 6.0
2014-Oct-23 01:27N 26°00' E 119°29'0 0.0
2014-Oct-23 00:33N 26°00' E 119°29'0 0.0
2014-Oct-22 23:33N 26°00' E 119°29'0 0.0
2014-Oct-22 22:33N 26°00' E 119°29'0 0.0
2014-Oct-22 21:26N 26°00' E 119°29'0 0.0
2014-Oct-22 20:32N 26°00' E 119°29'0 0.0
2014-Oct-22 19:32N 26°00' E 119°29'0 0.0
2014-Oct-22 18:32N 26°00' E 119°29'0 0.0
2014-Oct-22 17:26N 26°00' E 119°29'0 0.0
2014-Oct-22 16:26N 26°00' E 119°29'0 0.0
2014-Oct-22 15:32N 26°00' E 119°29'0 0.0
2014-Oct-22 14:32N 26°00' E 119°29'0 0.0
2014-Oct-22 13:32N 26°00' E 119°29'0 0.0
2014-Oct-22 12:32N 26°00' E 119°29'0 0.0
2014-Oct-22 11:32N 26°00' E 119°29'0 0.0
2014-Oct-22 10:32N 26°00' E 119°29'0 0.0
2014-Oct-22 09:32N 26°00' E 119°29'0 0.0
2014-Oct-22 08:32N 26°00' E 119°29'0 0.0
2014-Oct-22 07:32N 26°00' E 119°29'0 0.0
2014-Oct-22 06:32N 26°00' E 119°29'0 0.0
2014-Oct-22 05:32N 26°00' E 119°29'0 0.0
2014-Oct-22 04:26N 26°00' E 119°29'0 0.0
2014-Oct-22 03:32N 26°00' E 119°29'0 0.0
2014-Oct-22 02:32N 26°00' E 119°29'0 0.0
2014-Oct-22 01:20N 26°00' E 119°29'0 0.0
2014-Oct-22 00:26N 26°00' E 119°29'0 0.0
2014-Oct-21 23:32N 26°00' E 119°29'0 0.0
2014-Oct-21 22:26N 26°00' E 119°29'0 0.0
2014-Oct-21 21:32N 26°00' E 119°29'0 0.0
2014-Oct-21 20:32N 26°00' E 119°29'0 0.0
2014-Oct-21 19:32N 26°00' E 119°29'0 0.0
2014-Oct-21 18:26N 26°00' E 119°29'0 0.0
2014-Oct-21 17:32N 26°00' E 119°29'0 0.0
2014-Oct-21 16:26N 26°00' E 119°29'0 0.0
2014-Oct-21 15:32N 26°00' E 119°29'0 0.0
2014-Oct-21 14:32N 26°00' E 119°29'2 2.2
2014-Oct-21 13:33N 26°02' E 119°30'6410.3
2014-Oct-21 07:22N 25°03' E 119°58'2913.6
2014-Oct-21 05:12N 24°33' E 119°57'3412.8
2014-Oct-21 02:30N 23°59' E 119°56'1313.9
2014-Oct-21 01:33N 23°46' E 119°56'1815.1
2014-Oct-21 00:20N 23°27' E 119°55'4014.4
2014-Oct-20 21:31N 22°48' E 120°06'1313.0
2014-Oct-20 20:33N 22°36' E 120°11'7 7.2
2014-Oct-20 19:33N 22°33' E 120°18'2 0.2
2014-Oct-20 08:21N 22°33' E 120°20'6 8.2
2014-Oct-20 07:33N 22°33' E 120°13'1212.3
2014-Oct-20 06:33N 22°44' E 120°07'1212.1
2014-Oct-20 05:33N 22°55' E 120°02'3912.4
2014-Oct-20 02:26N 23°33' E 119°55'1311.7
2014-Oct-20 01:21N 23°46' E 119°55'911.3
2014-Oct-20 00:33N 23°55' E 119°56'1311.0
2014-Oct-19 23:25N 24°08' E 119°56'11811.9
2014-Oct-19 13:27N 26°05' E 119°43'910.3
2014-Oct-19 12:33N 26°07' E 119°33'8 7.4
2014-Oct-19 11:29N 26°00' E 119°29'0 0.1
2014-Oct-19 10:33N 26°00' E 119°29'0 0.0
2014-Oct-19 09:33N 26°00' E 119°29'0 0.0
2014-Oct-19 08:27N 26°00' E 119°29'0 0.0
2014-Oct-19 07:33N 26°00' E 119°29'0 0.0
2014-Oct-19 06:27N 26°00' E 119°29'0 0.0
2014-Oct-19 05:33N 26°00' E 119°29'0 0.0
2014-Oct-19 04:27N 26°00' E 119°29'0 0.0
2014-Oct-19 03:33N 26°00' E 119°29'0 0.0
2014-Oct-19 02:33N 26°00' E 119°29'0 0.0
2014-Oct-19 01:33N 26°00' E 119°29'0 0.0
2014-Oct-19 00:33N 26°00' E 119°29'0 0.0
2014-Oct-18 23:33N 26°00' E 119°29'0 0.0
2014-Oct-18 22:21N 26°00' E 119°29'0 0.0
2014-Oct-18 21:33N 26°00' E 119°29'0 0.0
2014-Oct-18 20:33N 26°00' E 119°29'0 0.0
2014-Oct-18 19:33N 26°00' E 119°29'0 0.0
2014-Oct-18 18:33N 26°00' E 119°29'0 0.2
2014-Oct-18 17:33N 26°01' E 119°29'8 8.1
2014-Oct-18 16:32N 26°08' E 119°34'20 8.9
2014-Oct-18 14:15N 25°55' E 119°52'18810.6
2014-Oct-17 20:33N 22°48' E 120°06'1312.7
2014-Oct-17 19:33N 22°38' E 120°15'6 5.1
2014-Oct-17 18:29N 22°34' E 120°19'0 0.0
2014-Oct-17 17:11N 22°34' E 120°19'0 0.0
2014-Oct-17 16:17N 22°34' E 120°19'0 0.0
2014-Oct-17 14:28N 22°34' E 120°19'1 0.1
2014-Oct-17 05:15N 22°33' E 120°20'0 0.0
2014-Oct-17 03:09N 22°33' E 120°20'4 6.4
2014-Oct-17 02:33N 22°33' E 120°16'1010.1
2014-Oct-17 01:33N 22°40' E 120°08'20612.1
2014-Oct-16 08:31N 26°05' E 119°46'1010.2
2014-Oct-16 07:31N 26°08' E 119°35'9 9.2
2014-Oct-16 06:33N 26°01' E 119°29'1 1.0
2014-Oct-16 05:33N 26°00' E 119°29'0 0.0
2014-Oct-16 04:32N 26°00' E 119°29'0 0.0
2014-Oct-16 03:32N 26°00' E 119°29'0 0.1
2014-Oct-16 02:32N 26°00' E 119°29'0 0.1
2014-Oct-16 01:32N 26°00' E 119°29'0 0.0
2014-Oct-16 00:20N 26°00' E 119°29'0 0.0
2014-Oct-15 23:26N 26°00' E 119°29'0 0.0
2014-Oct-15 21:26N 26°00' E 119°29'0 0.0
2014-Oct-15 20:31N 26°00' E 119°29'0 0.0
2014-Oct-15 19:19N 26°00' E 119°29'0 0.0
2014-Oct-15 18:19N 26°00' E 119°29'0 0.0
2014-Oct-15 17:25N 26°00' E 119°29'0 0.0
2014-Oct-15 16:19N 26°00' E 119°29'0 0.0
2014-Oct-15 15:31N 26°00' E 119°29'1 0.9
2014-Oct-15 14:33N 26°01' E 119°29'195 8.9
2014-Oct-14 16:33N 22°49' E 120°05'1212.4
2014-Oct-14 15:33N 22°38' E 120°11'9 9.1
2014-Oct-14 14:32N 22°33' E 120°20'  
Track history (hours):
 
Tides and Currents Weather Stations Pressure Air Temp Water Temp Dewpoint Dewpoint Depression Visibility Wind Speed Wind Dir Waves Ship Positions

Nagaleader

Last reported at 2014-Oct-24 11:33 UTC. Time now 2014-Oct-24 13:42 UTC.
Position N 22°33' E 120°19'.

Length 113 m; draft 5.8 m.

Type: Cargo ship. MMSI: 477926700.

Date/timePositionNaut miles runAvg speedWind from/ knotsBaromVisibWave heightAir tempDewpointWater temp
2014-Oct-24 11:33N 22°33' E 120°19'1 0.1
2014-Oct-24 03:12N 22°33' E 120°20'0 0.0
2014-Oct-24 02:12N 22°33' E 120°20'2 3.8
2014-Oct-24 01:33N 22°33' E 120°17'2 1.6
2014-Oct-24 00:33N 22°31' E 120°17'5 2.1
2014-Oct-23 22:27N 22°28' E 120°13'2 1.2
2014-Oct-23 21:06N 22°30' E 120°12'2 3.1
2014-Oct-23 20:33N 22°32' E 120°12'1313.3
2014-Oct-23 19:33N 22°44' E 120°07'16912.8
2014-Oct-23 06:22N 25°33' E 119°57'3512.3
2014-Oct-23 03:31N 26°05' E 119°43'1010.1
2014-Oct-23 02:33N 26°06' E 119°32'7 6.0
2014-Oct-23 01:27N 26°00' E 119°29'0 0.0
2014-Oct-23 00:33N 26°00' E 119°29'0 0.0
2014-Oct-22 23:33N 26°00' E 119°29'0 0.0
2014-Oct-22 22:33N 26°00' E 119°29'0 0.0
2014-Oct-22 21:26N 26°00' E 119°29'0 0.0
2014-Oct-22 20:32N 26°00' E 119°29'0 0.0
2014-Oct-22 19:32N 26°00' E 119°29'0 0.0
2014-Oct-22 18:32N 26°00' E 119°29'0 0.0
2014-Oct-22 17:26N 26°00' E 119°29'0 0.0
2014-Oct-22 16:26N 26°00' E 119°29'0 0.0
2014-Oct-22 15:32N 26°00' E 119°29'0 0.0
2014-Oct-22 14:32N 26°00' E 119°29'0 0.0
2014-Oct-22 13:32N 26°00' E 119°29'0 0.0
2014-Oct-22 12:32N 26°00' E 119°29'0 0.0
2014-Oct-22 11:32N 26°00' E 119°29'0 0.0
2014-Oct-22 10:32N 26°00' E 119°29'0 0.0
2014-Oct-22 09:32N 26°00' E 119°29'0 0.0
2014-Oct-22 08:32N 26°00' E 119°29'0 0.0
2014-Oct-22 07:32N 26°00' E 119°29'0 0.0
2014-Oct-22 06:32N 26°00' E 119°29'0 0.0
2014-Oct-22 05:32N 26°00' E 119°29'0 0.0
2014-Oct-22 04:26N 26°00' E 119°29'0 0.0
2014-Oct-22 03:32N 26°00' E 119°29'0 0.0
2014-Oct-22 02:32N 26°00' E 119°29'0 0.0
2014-Oct-22 01:20N 26°00' E 119°29'0 0.0
2014-Oct-22 00:26N 26°00' E 119°29'0 0.0
2014-Oct-21 23:32N 26°00' E 119°29'0 0.0
2014-Oct-21 22:26N 26°00' E 119°29'0 0.0
2014-Oct-21 21:32N 26°00' E 119°29'0 0.0
2014-Oct-21 20:32N 26°00' E 119°29'0 0.0
2014-Oct-21 19:32N 26°00' E 119°29'0 0.0
2014-Oct-21 18:26N 26°00' E 119°29'0 0.0
2014-Oct-21 17:32N 26°00' E 119°29'0 0.0
2014-Oct-21 16:26N 26°00' E 119°29'0 0.0
2014-Oct-21 15:32N 26°00' E 119°29'0 0.0
2014-Oct-21 14:32N 26°00' E 119°29'2 2.2
2014-Oct-21 13:33N 26°02' E 119°30'6410.3
2014-Oct-21 07:22N 25°03' E 119°58'2913.6
2014-Oct-21 05:12N 24°33' E 119°57'3412.8
2014-Oct-21 02:30N 23°59' E 119°56'1313.9
2014-Oct-21 01:33N 23°46' E 119°56'1815.1
2014-Oct-21 00:20N 23°27' E 119°55'4014.4
2014-Oct-20 21:31N 22°48' E 120°06'1313.0
2014-Oct-20 20:33N 22°36' E 120°11'7 7.2
2014-Oct-20 19:33N 22°33' E 120°18'2 0.2
2014-Oct-20 08:21N 22°33' E 120°20'6 8.2
2014-Oct-20 07:33N 22°33' E 120°13'1212.3
2014-Oct-20 06:33N 22°44' E 120°07'1212.1
2014-Oct-20 05:33N 22°55' E 120°02'3912.4
2014-Oct-20 02:26N 23°33' E 119°55'1311.7
2014-Oct-20 01:21N 23°46' E 119°55'911.3
2014-Oct-20 00:33N 23°55' E 119°56'1311.0
2014-Oct-19 23:25N 24°08' E 119°56'11811.9
2014-Oct-19 13:27N 26°05' E 119°43'910.3
2014-Oct-19 12:33N 26°07' E 119°33'8 7.4
2014-Oct-19 11:29N 26°00' E 119°29'0 0.1
2014-Oct-19 10:33N 26°00' E 119°29'0 0.0
2014-Oct-19 09:33N 26°00' E 119°29'0 0.0
2014-Oct-19 08:27N 26°00' E 119°29'0 0.0
2014-Oct-19 07:33N 26°00' E 119°29'0 0.0
2014-Oct-19 06:27N 26°00' E 119°29'0 0.0
2014-Oct-19 05:33N 26°00' E 119°29'0 0.0
2014-Oct-19 04:27N 26°00' E 119°29'0 0.0
2014-Oct-19 03:33N 26°00' E 119°29'0 0.0
2014-Oct-19 02:33N 26°00' E 119°29'0 0.0
2014-Oct-19 01:33N 26°00' E 119°29'0 0.0
2014-Oct-19 00:33N 26°00' E 119°29'0 0.0
2014-Oct-18 23:33N 26°00' E 119°29'0 0.0
2014-Oct-18 22:21N 26°00' E 119°29'0 0.0
2014-Oct-18 21:33N 26°00' E 119°29'0 0.0
2014-Oct-18 20:33N 26°00' E 119°29'0 0.0
2014-Oct-18 19:33N 26°00' E 119°29'0 0.0
2014-Oct-18 18:33N 26°00' E 119°29'0 0.2
2014-Oct-18 17:33N 26°01' E 119°29'8 8.1
2014-Oct-18 16:32N 26°08' E 119°34'20 8.9
2014-Oct-18 14:15N 25°55' E 119°52'18810.6
2014-Oct-17 20:33N 22°48' E 120°06'1312.7
2014-Oct-17 19:33N 22°38' E 120°15'6 5.1
2014-Oct-17 18:29N 22°34' E 120°19'0 0.0
2014-Oct-17 17:11N 22°34' E 120°19'0 0.0
2014-Oct-17 16:17N 22°34' E 120°19'0 0.0
2014-Oct-17 14:28N 22°34' E 120°19'1 0.1
2014-Oct-17 05:15N 22°33' E 120°20'0 0.0
2014-Oct-17 03:09N 22°33' E 120°20'4 6.4
2014-Oct-17 02:33N 22°33' E 120°16'1010.1
2014-Oct-17 01:33N 22°40' E 120°08'20612.1
2014-Oct-16 08:31N 26°05' E 119°46'1010.2
2014-Oct-16 07:31N 26°08' E 119°35'9 9.2
2014-Oct-16 06:33N 26°01' E 119°29'1 1.0
2014-Oct-16 05:33N 26°00' E 119°29'0 0.0
2014-Oct-16 04:32N 26°00' E 119°29'0 0.0
2014-Oct-16 03:32N 26°00' E 119°29'0 0.1
2014-Oct-16 02:32N 26°00' E 119°29'0 0.1
2014-Oct-16 01:32N 26°00' E 119°29'0 0.0
2014-Oct-16 00:20N 26°00' E 119°29'0 0.0
2014-Oct-15 23:26N 26°00' E 119°29'0 0.0
2014-Oct-15 21:26N 26°00' E 119°29'0 0.0
2014-Oct-15 20:31N 26°00' E 119°29'0 0.0
2014-Oct-15 19:19N 26°00' E 119°29'0 0.0
2014-Oct-15 18:19N 26°00' E 119°29'0 0.0
2014-Oct-15 17:25N 26°00' E 119°29'0 0.0
2014-Oct-15 16:19N 26°00' E 119°29'0 0.0
2014-Oct-15 15:31N 26°00' E 119°29'1 0.9
2014-Oct-15 14:33N 26°01' E 119°29'195 8.9
2014-Oct-14 16:33N 22°49' E 120°05'1212.4
2014-Oct-14 15:33N 22°38' E 120°11'9 9.1
2014-Oct-14 14:32N 22°33' E 120°20'  

Dump ship's entire track history